Time;durP1;ratioP1;P1;durP2;ratioP2;P2;SDS_P1;SDS_P2;PMS_P1;PMS_P2;Temp;Humidity;BMP_temperature;BMP_pressure;BME280_temperature;BME280_humidity;BME280_pressure;Samples;Min_cycle;Max_cycle;Signal;HPM_P1;HPM_P2
2022/03/21 00:01:41;;;;;;;16.00;12.85;;;7.20;79.00;;;;;;5035301;28;20093;-80
2022/03/21 00:04:08;;;;;;;17.13;13.10;;;7.10;79.40;;;;;;5021993;28;20501;-81
2022/03/21 00:06:34;;;;;;;15.10;13.40;;;7.10;79.90;;;;;;5036738;28;20072;-84
2022/03/21 00:08:59;;;;;;;14.75;13.20;;;7.00;80.00;;;;;;5024246;28;20033;-81
2022/03/21 00:11:27;;;;;;;17.30;12.07;;;7.00;81.00;;;;;;5035363;28;20045;-81
2022/03/21 00:13:54;;;;;;;18.55;12.75;;;6.90;80.80;;;;;;5013008;28;20485;-80
2022/03/21 00:16:20;;;;;;;13.88;12.43;;;6.90;81.10;;;;;;5016495;28;20033;-85
2022/03/21 00:18:45;;;;;;;14.85;11.98;;;7.00;81.10;;;;;;5018290;28;20030;-84
2022/03/21 00:21:11;;;;;;;15.93;12.45;;;6.90;81.00;;;;;;5033343;28;20033;-81
2022/03/21 00:23:36;;;;;;;13.15;11.18;;;6.90;81.20;;;;;;5038428;28;20037;-84
2022/03/21 00:26:03;;;;;;;16.25;12.20;;;6.90;81.90;;;;;;5022447;28;20040;-84
2022/03/21 00:28:28;;;;;;;18.25;12.05;;;7.10;82.50;;;;;;5040584;28;20018;-86
2022/03/21 00:30:55;;;;;;;18.42;14.00;;;7.10;82.70;;;;;;5017030;28;20032;-85
2022/03/21 00:33:21;;;;;;;16.35;12.90;;;7.10;83.10;;;;;;5041807;28;20461;-84
2022/03/21 00:35:50;;;;;;;17.05;12.57;;;7.10;83.50;;;;;;5021391;28;20120;-83
2022/03/21 00:38:16;;;;;;;19.85;12.65;;;7.00;83.50;;;;;;5025374;28;20041;-84
2022/03/21 00:40:45;;;;;;;13.95;10.90;;;7.00;82.80;;;;;;5016912;28;20033;-84
2022/03/21 00:43:17;;;;;;;19.88;12.98;;;7.00;83.00;;;;;;5019186;28;20021;-85
2022/03/21 00:45:42;;;;;;;13.63;11.65;;;7.00;82.80;;;;;;5023628;28;20048;-84
2022/03/21 00:48:08;;;;;;;16.70;12.82;;;7.00;83.30;;;;;;5042745;28;20029;-85
2022/03/21 00:50:34;;;;;;;17.55;13.40;;;6.90;83.60;;;;;;5021448;28;20435;-84
2022/03/21 00:52:59;;;;;;;18.38;12.48;;;6.80;84.10;;;;;;5039773;28;20035;-83
2022/03/21 00:55:28;;;;;;;17.50;13.60;;;6.70;84.90;;;;;;5022117;28;20037;-85
2022/03/21 00:57:54;;;;;;;16.80;12.07;;;6.80;85.70;;;;;;5014732;28;20026;-84
2022/03/21 01:00:22;;;;;;;16.92;13.32;;;6.70;85.50;;;;;;5023825;28;20091;-85
2022/03/21 01:02:48;;;;;;;15.38;12.43;;;6.70;86.50;;;;;;5042561;28;20025;-84
2022/03/21 01:05:14;;;;;;;14.98;12.02;;;6.60;86.50;;;;;;5040780;28;20385;-85
2022/03/21 01:07:41;;;;;;;16.92;12.35;;;6.50;85.90;;;;;;5041837;28;20018;-85
2022/03/21 01:10:09;;;;;;;14.93;11.70;;;6.50;86.20;;;;;;5039895;28;20021;-84
2022/03/21 01:12:35;;;;;;;12.93;11.30;;;6.40;87.00;;;;;;5040696;28;20388;-85
2022/03/21 01:15:01;;;;;;;15.60;11.85;;;6.30;87.80;;;;;;5034395;28;20091;-85
2022/03/21 01:17:27;;;;;;;18.13;13.20;;;6.30;88.60;;;;;;5014721;28;20030;-84
2022/03/21 01:19:53;;;;;;;14.93;12.60;;;6.20;88.80;;;;;;5031302;28;20128;-84
2022/03/21 01:22:18;;;;;;;16.95;12.63;;;6.20;89.60;;;;;;5033430;28;20040;-84
2022/03/21 01:24:44;;;;;;;17.33;13.23;;;6.30;89.40;;;;;;5019841;28;20037;-85
2022/03/21 01:27:10;;;;;;;15.93;12.60;;;6.30;89.80;;;;;;5021321;28;20037;-84
2022/03/21 01:29:36;;;;;;;17.83;12.55;;;6.30;90.00;;;;;;5039405;28;20088;-85
2022/03/21 01:32:02;;;;;;;15.07;12.05;;;6.40;90.20;;;;;;5015784;28;20021;-84
2022/03/21 01:34:27;;;;;;;18.58;12.55;;;6.40;90.40;;;;;;5015296;28;20014;-85
2022/03/21 01:36:53;;;;;;;17.35;12.57;;;6.30;90.80;;;;;;5024064;28;20048;-86
2022/03/21 01:39:19;;;;;;;16.45;12.38;;;6.30;90.90;;;;;;5039942;28;20390;-85
2022/03/21 01:41:45;;;;;;;17.83;13.60;;;6.20;91.10;;;;;;5040867;28;20159;-85
2022/03/21 01:44:11;;;;;;;19.55;13.40;;;6.10;91.50;;;;;;5020172;28;20025;-85
2022/03/21 01:46:37;;;;;;;14.75;12.20;;;6.00;91.70;;;;;;5037948;28;20022;-83
2022/03/21 01:49:06;;;;;;;16.83;12.98;;;6.00;92.10;;;;;;5044093;28;20029;-84
2022/03/21 01:51:32;;;;;;;16.55;11.65;;;6.00;92.40;;;;;;5024962;28;20052;-84
2022/03/21 01:56:45;;;;;;;15.73;12.05;;;5.90;92.20;;;;;;5036863;28;20059;-84
2022/03/21 01:59:12;;;;;;;19.85;12.20;;;5.90;92.60;;;;;;5015962;28;20405;-83
2022/03/21 02:01:39;;;;;;;14.25;11.63;;;5.90;92.70;;;;;;5039393;28;20021;-84
2022/03/21 02:04:05;;;;;;;17.00;12.85;;;6.00;92.90;;;;;;5039969;28;20041;-83
2022/03/21 02:06:31;;;;;;;15.40;11.63;;;5.90;93.10;;;;;;5039785;28;20463;-84
2022/03/21 02:08:59;;;;;;;17.45;13.55;;;5.90;93.30;;;;;;5041224;28;20040;-85
2022/03/21 02:11:29;;;;;;;15.10;12.23;;;5.90;93.60;;;;;;5044961;28;20112;-85
2022/03/21 02:13:56;;;;;;;14.75;11.85;;;5.80;94.00;;;;;;5037818;28;20064;-84
2022/03/21 02:16:24;;;;;;;16.17;11.15;;;5.80;94.40;;;;;;5015576;28;20025;-83
2022/03/21 02:18:50;;;;;;;14.88;12.40;;;5.80;94.60;;;;;;5022928;28;20018;-84
2022/03/21 02:21:35;;;;;;;18.45;12.73;;;5.80;94.70;;;;;;5037435;28;20040;-85
2022/03/21 02:24:17;;;;;;;18.75;12.70;;;5.90;94.70;;;;;;5037828;28;20044;-84
2022/03/21 02:26:45;;;;;;;18.27;12.27;;;5.90;94.80;;;;;;5016595;28;20025;-85
2022/03/21 02:29:11;;;;;;;17.60;11.00;;;5.90;94.80;;;;;;5020399;28;20025;-84
2022/03/21 02:31:37;;;;;;;15.98;11.95;;;5.90;94.80;;;;;;5020188;28;20018;-84
2022/03/21 02:34:03;;;;;;;17.75;12.30;;;5.90;94.90;;;;;;5022436;28;20468;-84
2022/03/21 02:36:30;;;;;;;14.43;12.57;;;5.90;94.90;;;;;;5021566;28;20052;-84
2022/03/21 02:38:57;;;;;;;16.63;12.05;;;5.90;95.10;;;;;;5023287;28;20032;-85
2022/03/21 02:41:22;;;;;;;13.88;11.43;;;5.90;95.30;;;;;;5036265;28;20125;-86
2022/03/21 02:43:58;;;;;;;17.13;12.32;;;5.80;95.40;;;;;;5021871;28;20061;-85
2022/03/21 02:46:24;;;;;;;14.07;12.30;;;5.80;95.50;;;;;;5018933;28;20056;-84
2022/03/21 02:48:52;;;;;;;15.75;12.23;;;5.90;96.10;;;;;;5019899;28;20021;-84
2022/03/21 02:51:22;;;;;;;15.35;11.43;;;5.90;96.00;;;;;;5019146;28;20022;-84
2022/03/21 02:53:51;;;;;;;16.15;12.68;;;5.90;96.20;;;;;;5023436;28;20586;-83
2022/03/21 02:56:20;;;;;;;15.73;14.02;;;5.90;96.30;;;;;;5023386;28;20026;-84
2022/03/21 02:58:48;;;;;;;15.80;12.60;;;5.80;96.60;;;;;;5038963;28;20041;-84
2022/03/21 03:01:18;;;;;;;15.15;11.88;;;5.70;97.00;;;;;;5020522;28;20026;-83
2022/03/21 03:03:45;;;;;;;17.48;13.80;;;5.70;97.70;;;;;;5038612;28;20025;-83
2022/03/21 03:06:11;;;;;;;16.13;13.38;;;5.60;98.20;;;;;;5016304;28;20025;-83
2022/03/21 03:08:40;;;;;;;17.20;12.30;;;5.70;98.50;;;;;;5020830;28;20089;-86
2022/03/21 03:11:05;;;;;;;15.73;12.68;;;5.70;98.30;;;;;;5023685;28;20017;-85
2022/03/21 03:13:31;;;;;;;19.35;12.55;;;5.60;98.40;;;;;;5031254;28;20028;-84
2022/03/21 03:15:57;;;;;;;16.33;12.60;;;5.50;98.70;;;;;;5025446;28;20389;-84
2022/03/21 03:18:23;;;;;;;15.68;12.50;;;5.50;99.40;;;;;;5043700;28;20056;-84
2022/03/21 03:20:54;;;;;;;15.60;12.20;;;5.40;99.50;;;;;;5040892;28;20081;-85
2022/03/21 03:23:21;;;;;;;14.10;11.80;;;5.40;99.70;;;;;;5041412;28;20032;-85
2022/03/21 03:26:02;;;;;;;18.73;13.40;;;5.40;99.70;;;;;;5019449;28;20121;-82
2022/03/21 03:28:29;;;;;;;17.02;12.52;;;5.40;99.80;;;;;;5025042;28;20017;-84
2022/03/21 03:30:55;;;;;;;21.20;13.50;;;5.30;99.90;;;;;;5037217;28;20069;-85
2022/03/21 03:33:23;;;;;;;17.50;13.35;;;5.30;99.90;;;;;;5033691;28;20029;-85
2022/03/21 03:35:49;;;;;;;14.98;11.73;;;5.30;99.90;;;;;;5038399;28;20021;-83
2022/03/21 03:38:15;;;;;;;14.73;12.32;;;5.20;99.90;;;;;;5048433;28;20036;-86
2022/03/21 03:40:41;;;;;;;14.90;12.40;;;5.20;99.90;;;;;;5034718;28;20026;-84
2022/03/21 03:43:07;;;;;;;16.58;12.15;;;5.20;99.90;;;;;;5024007;28;20563;-84
2022/03/21 03:45:32;;;;;;;14.35;12.00;;;5.10;99.90;;;;;;5030646;28;20025;-84
2022/03/21 03:47:58;;;;;;;22.95;13.45;;;5.20;99.90;;;;;;5052228;28;20069;-84
2022/03/21 03:50:23;;;;;;;16.27;12.07;;;5.10;99.90;;;;;;5031870;28;20108;-83
2022/03/21 03:52:49;;;;;;;18.70;12.40;;;5.00;99.90;;;;;;5030292;28;20014;-84
2022/03/21 03:55:17;;;;;;;24.27;13.45;;;5.00;99.90;;;;;;5050047;28;20214;-84
2022/03/21 03:57:44;;;;;;;16.73;11.65;;;5.00;99.90;;;;;;5033865;28;20025;-83
2022/03/21 04:00:12;;;;;;;15.38;12.57;;;5.00;99.90;;;;;;5030607;28;20113;-83
2022/03/21 04:05:22;;;;;;;14.95;11.77;;;5.00;99.90;;;;;;5046711;28;20060;-84
2022/03/21 04:07:50;;;;;;;18.67;13.27;;;4.90;99.90;;;;;;5048034;28;20021;-82
2022/03/21 04:10:16;;;;;;;17.42;12.65;;;4.90;99.90;;;;;;5051973;28;20473;-84
2022/03/21 04:12:43;;;;;;;21.70;13.35;;;4.90;99.90;;;;;;5049397;28;20030;-83
2022/03/21 04:15:10;;;;;;;17.35;14.15;;;4.90;99.90;;;;;;5052181;28;20012;-83
2022/03/21 04:17:36;;;;;;;18.60;12.70;;;5.20;99.90;;;;;;5052801;28;20008;-84
2022/03/21 04:20:03;;;;;;;18.20;13.95;;;5.10;99.90;;;;;;5052975;28;20017;-82
2022/03/21 04:22:28;;;;;;;19.10;12.90;;;4.90;99.90;;;;;;5059337;28;20093;-86
2022/03/21 04:24:54;;;;;;;16.90;12.75;;;4.90;99.90;;;;;;5059905;28;20049;-86
2022/03/21 04:27:20;;;;;;;17.83;13.10;;;4.80;99.90;;;;;;5059602;28;20061;-86
2022/03/21 04:29:45;;;;;;;26.38;14.20;;;4.80;99.90;;;;;;5059253;28;20059;-85
2022/03/21 04:32:11;;;;;;;18.95;12.75;;;4.70;99.90;;;;;;5041609;28;20020;-86
2022/03/21 04:34:37;;;;;;;17.70;12.52;;;4.90;99.90;;;;;;5052287;28;20037;-85
2022/03/21 04:37:02;;;;;;;16.83;13.27;;;4.90;99.90;;;;;;5056556;28;20264;-84
2022/03/21 04:39:28;;;;;;;16.45;12.88;;;4.90;99.90;;;;;;5035916;28;20021;-85
2022/03/21 04:41:54;;;;;;;20.23;13.70;;;4.90;99.90;;;;;;5052614;28;20056;-83
2022/03/21 04:44:19;;;;;;;20.75;12.55;;;4.80;99.90;;;;;;5041375;28;20014;-85
2022/03/21 04:46:45;;;;;;;15.68;12.07;;;4.70;99.90;;;;;;5058169;28;20103;-83
2022/03/21 04:49:10;;;;;;;18.27;12.75;;;4.60;99.90;;;;;;5041664;28;20013;-84
2022/03/21 04:51:36;;;;;;;18.15;12.73;;;4.60;99.90;;;;;;5058372;28;20077;-86
2022/03/21 04:54:02;;;;;;;19.40;12.48;;;4.60;99.90;;;;;;5059448;28;20024;-85
2022/03/21 04:56:27;;;;;;;17.67;12.77;;;4.60;99.90;;;;;;5041109;28;20022;-87
2022/03/21 04:58:53;;;;;;;21.20;12.80;;;4.60;99.90;;;;;;5037018;28;20017;-84
2022/03/21 05:01:19;;;;;;;27.67;12.43;;;4.50;99.90;;;;;;5037405;28;20029;-84
2022/03/21 05:03:44;;;;;;;23.50;13.40;;;4.50;99.90;;;;;;5035746;28;20018;-86
2022/03/21 05:06:12;;;;;;;25.13;13.60;;;4.50;99.90;;;;;;5037136;28;20040;-84
2022/03/21 05:08:37;;;;;;;22.83;14.00;;;4.50;99.90;;;;;;5016502;28;20018;-85
2022/03/21 05:11:03;;;;;;;21.65;13.68;;;4.40;99.90;;;;;;5038303;28;20026;-84
2022/03/21 05:13:29;;;;;;;19.55;13.18;;;4.50;99.90;;;;;;5024481;28;20037;-84
2022/03/21 05:15:54;;;;;;;21.40;14.25;;;4.50;99.90;;;;;;5019350;28;20021;-85
2022/03/21 05:18:21;;;;;;;19.48;12.63;;;4.50;99.90;;;;;;5019449;28;20022;-85
2022/03/21 05:20:47;;;;;;;19.55;13.80;;;4.50;99.90;;;;;;5018803;28;20029;-85
2022/03/21 05:31:25;;;;;;;21.75;12.95;;;4.50;99.90;;;;;;5029311;28;20478;-85
2022/03/21 05:36:35;;;;;;;20.60;12.38;;;4.50;99.90;;;;;;5046808;28;20097;-86
2022/03/21 05:39:02;;;;;;;18.70;13.40;;;4.50;99.90;;;;;;5028318;28;20030;-84
2022/03/21 05:41:28;;;;;;;20.67;13.52;;;4.50;99.90;;;;;;5037987;28;20017;-86
2022/03/21 05:43:54;;;;;;;22.20;14.63;;;4.60;99.90;;;;;;5016272;28;20046;-84
2022/03/21 05:46:20;;;;;;;20.65;14.23;;;4.60;99.90;;;;;;5017881;28;20030;-83
2022/03/21 05:48:59;;;;;;;26.40;14.50;;;4.60;99.90;;;;;;5015071;28;20384;-85
2022/03/21 05:51:30;;;;;;;24.30;14.27;;;4.70;99.90;;;;;;5013251;28;20049;-83
2022/03/21 05:53:58;;;;;;;24.65;15.57;;;4.60;99.90;;;;;;5048674;28;20026;-86
2022/03/21 05:56:25;;;;;;;21.00;14.43;;;4.70;99.90;;;;;;5036775;28;20033;-87
2022/03/21 05:58:52;;;;;;;21.65;15.38;;;4.80;99.90;;;;;;5040634;28;20017;-86
2022/03/21 06:01:18;;;;;;;23.65;14.73;;;4.80;99.90;;;;;;5056622;28;20029;-86
2022/03/21 06:03:44;;;;;;;17.92;13.95;;;4.90;99.90;;;;;;5037426;28;20030;-84
2022/03/21 06:06:10;;;;;;;14.88;12.88;;;5.00;99.90;;;;;;5023336;28;20090;-85
2022/03/21 06:08:36;;;;;;;22.08;12.98;;;5.20;99.90;;;;;;5036791;28;20013;-84
2022/03/21 06:11:05;;;;;;;18.45;12.23;;;5.30;99.90;;;;;;5039873;28;20025;-85
2022/03/21 06:13:36;;;;;;;19.35;12.25;;;5.50;99.90;;;;;;5018699;28;20511;-85
2022/03/21 06:16:06;;;;;;;18.40;12.18;;;5.40;99.90;;;;;;5035327;28;20044;-85
2022/03/21 06:18:32;;;;;;;18.23;12.30;;;5.50;99.90;;;;;;5041318;28;20034;-85
2022/03/21 06:21:03;;;;;;;19.77;11.88;;;5.60;99.90;;;;;;5015687;28;20044;-84
2022/03/21 06:23:29;;;;;;;22.92;13.23;;;5.60;99.90;;;;;;5013168;28;20339;-84
2022/03/21 06:25:56;;;;;;;24.35;14.90;;;5.70;99.90;;;;;;5035692;28;20083;-85
2022/03/21 06:28:23;;;;;;;14.63;12.20;;;5.80;99.90;;;;;;5041435;28;20013;-85
2022/03/21 06:30:51;;;;;;;16.67;12.63;;;5.90;99.90;;;;;;5020370;28;20021;-86
2022/03/21 06:33:17;;;;;;;22.02;13.15;;;6.00;99.20;;;;;;5034163;28;20025;-84
2022/03/21 06:35:43;;;;;;;17.05;12.32;;;6.10;98.60;;;;;;5039112;28;20494;-85
2022/03/21 06:38:10;;;;;;;17.08;10.75;;;6.20;98.40;;;;;;5014186;28;20031;-85
2022/03/21 06:40:39;;;;;;;23.05;11.40;;;6.40;98.10;;;;;;5011097;28;20047;-84
2022/03/21 06:43:06;;;;;;;19.60;12.50;;;6.40;97.70;;;;;;5015420;28;20512;-83
2022/03/21 06:45:32;;;;;;;16.00;11.75;;;6.50;97.70;;;;;;5034767;28;20021;-84
2022/03/21 06:47:57;;;;;;;16.73;11.65;;;6.70;98.60;;;;;;5012447;28;20152;-83
2022/03/21 06:50:23;;;;;;;21.13;13.75;;;6.80;97.10;;;;;;5032732;28;20056;-85
2022/03/21 06:52:49;;;;;;;17.33;11.40;;;6.90;96.70;;;;;;5036701;28;20033;-84
2022/03/21 06:55:15;;;;;;;17.25;11.60;;;6.90;96.10;;;;;;5036053;28;20032;-84
2022/03/21 06:57:40;;;;;;;15.98;11.55;;;7.10;95.10;;;;;;5019505;28;20022;-84
2022/03/21 07:00:08;;;;;;;17.80;11.95;;;7.10;94.80;;;;;;5022327;28;20043;-85
2022/03/21 07:02:34;;;;;;;17.65;11.27;;;7.40;94.60;;;;;;5018316;28;20026;-84
2022/03/21 07:05:00;;;;;;;18.45;13.15;;;7.70;94.10;;;;;;5038710;28;20032;-84
2022/03/21 07:07:26;;;;;;;16.10;12.60;;;7.90;93.70;;;;;;5017033;28;20018;-85
2022/03/21 07:09:52;;;;;;;17.67;10.98;;;8.10;93.50;;;;;;5019106;28;20359;-85
2022/03/21 07:12:19;;;;;;;18.88;14.23;;;8.20;93.00;;;;;;5013798;28;20089;-85
2022/03/21 07:14:46;;;;;;;22.33;12.85;;;8.10;92.90;;;;;;5035587;28;20032;-84
2022/03/21 07:17:12;;;;;;;20.83;14.25;;;8.20;92.30;;;;;;5026362;28;20030;-82
2022/03/21 07:19:37;;;;;;;17.50;12.32;;;8.20;92.60;;;;;;5022374;28;20468;-76
2022/03/21 07:22:03;;;;;;;16.30;12.57;;;8.30;91.90;;;;;;5033699;28;20049;-77
2022/03/21 07:24:29;;;;;;;15.40;11.63;;;8.40;91.20;;;;;;5029682;28;20025;-77
2022/03/21 07:26:55;;;;;;;16.25;11.65;;;8.40;90.90;;;;;;5014300;28;20109;-78
2022/03/21 07:29:20;;;;;;;16.73;11.23;;;8.50;90.80;;;;;;5011722;28;20041;-79
2022/03/21 07:31:46;;;;;;;17.05;12.65;;;8.50;90.50;;;;;;5022120;28;20029;-79
2022/03/21 07:34:13;;;;;;;18.10;12.73;;;8.60;90.50;;;;;;5034914;28;20029;-79
2022/03/21 07:36:39;;;;;;;17.70;12.20;;;8.60;90.30;;;;;;5039881;28;20022;-78
2022/03/21 07:39:05;;;;;;;27.02;12.05;;;8.60;90.00;;;;;;5021196;28;20017;-77
2022/03/21 07:41:31;;;;;;;14.98;11.27;;;8.70;90.10;;;;;;5032681;28;20052;-78
2022/03/21 07:43:57;;;;;;;17.55;11.55;;;8.80;89.40;;;;;;5026041;28;20018;-78
2022/03/21 07:49:11;;;;;;;16.08;11.15;;;8.90;89.00;;;;;;5046391;28;20051;-79
2022/03/21 07:51:37;;;;;;;17.90;11.02;;;8.90;88.20;;;;;;5032896;28;20021;-77
2022/03/21 07:54:03;;;;;;;14.88;11.95;;;9.00;87.70;;;;;;5032293;28;20101;-76
2022/03/21 07:56:29;;;;;;;17.85;13.57;;;9.10;86.70;;;;;;5034214;28;20064;-76
2022/03/21 07:58:59;;;;;;;20.02;12.75;;;9.10;86.70;;;;;;5034476;28;20404;-77
2022/03/21 08:01:27;;;;;;;14.95;11.55;;;9.20;86.30;;;;;;5034851;28;20064;-77
2022/03/21 08:03:53;;;;;;;17.45;11.75;;;9.30;85.60;;;;;;5014179;28;20057;-74
2022/03/21 08:06:19;;;;;;;23.27;13.30;;;9.40;85.30;;;;;;5006478;28;20122;-77
2022/03/21 08:08:45;;;;;;;20.88;12.77;;;9.50;85.40;;;;;;5025766;28;20033;-77
2022/03/21 08:11:10;;;;;;;18.25;12.57;;;9.60;85.10;;;;;;5031991;28;20014;-75
2022/03/21 08:13:38;;;;;;;15.20;12.98;;;9.60;85.00;;;;;;5016484;28;20481;-74
2022/03/21 08:16:04;;;;;;;16.10;11.52;;;9.70;84.60;;;;;;5034479;28;20029;-79
2022/03/21 08:18:29;;;;;;;14.43;11.63;;;9.80;84.10;;;;;;5032836;28;20036;-76
2022/03/21 08:20:55;;;;;;;14.77;11.82;;;9.80;83.40;;;;;;5014860;28;20116;-74
2022/03/21 08:23:20;;;;;;;14.60;11.32;;;9.80;83.40;;;;;;5015253;28;20206;-76
2022/03/21 08:25:46;;;;;;;17.45;11.80;;;9.90;83.10;;;;;;5035496;28;20524;-76
2022/03/21 08:28:14;;;;;;;15.88;11.88;;;10.00;82.60;;;;;;5036671;28;20040;-76
2022/03/21 08:30:40;;;;;;;13.88;11.57;;;10.10;82.10;;;;;;5017649;28;20025;-75
2022/03/21 08:33:10;;;;;;;12.75;11.23;;;10.20;81.30;;;;;;5035417;28;20087;-75
2022/03/21 08:35:38;;;;;;;14.45;11.38;;;10.20;81.60;;;;;;5035321;28;20099;-75
2022/03/21 08:38:05;;;;;;;15.55;11.40;;;10.30;81.10;;;;;;5035593;28;20026;-75
2022/03/21 08:40:31;;;;;;;16.10;11.85;;;10.40;81.20;;;;;;5017237;28;20048;-75
2022/03/21 08:42:57;;;;;;;13.57;11.70;;;10.50;80.60;;;;;;5035815;28;20034;-75
2022/03/21 08:45:23;;;;;;;15.40;13.02;;;10.50;80.50;;;;;;5035310;28;20032;-76
2022/03/21 08:47:50;;;;;;;14.05;12.18;;;10.70;80.10;;;;;;5035987;28;20393;-75
2022/03/21 08:50:16;;;;;;;16.08;11.90;;;10.80;79.50;;;;;;5036214;28;20018;-75
2022/03/21 08:52:41;;;;;;;17.77;12.23;;;11.00;79.20;;;;;;5036314;28;20021;-75
2022/03/21 08:55:08;;;;;;;17.58;12.57;;;11.10;79.00;;;;;;5018210;28;20048;-75
2022/03/21 08:57:34;;;;;;;17.33;12.40;;;11.20;78.60;;;;;;5037442;28;20025;-76
2022/03/21 08:59:59;;;;;;;14.48;11.85;;;11.20;78.30;;;;;;5036612;28;20140;-76
2022/03/21 09:02:26;;;;;;;16.10;12.77;;;11.30;78.10;;;;;;5036062;28;20049;-75
2022/03/21 09:04:52;;;;;;;18.27;12.88;;;11.40;78.10;;;;;;5018117;28;20029;-76
2022/03/21 09:07:18;;;;;;;14.95;13.23;;;11.50;77.80;;;;;;5033783;28;20493;-76
2022/03/21 09:09:44;;;;;;;17.75;12.32;;;11.60;77.00;;;;;;5034772;28;20022;-74
2022/03/21 09:12:10;;;;;;;14.48;11.90;;;11.60;77.10;;;;;;5032995;28;20018;-75
2022/03/21 09:14:36;;;;;;;17.73;12.65;;;11.70;77.10;;;;;;5015772;28;20070;-75
2022/03/21 09:17:03;;;;;;;15.32;12.05;;;11.70;76.50;;;;;;5033195;28;20052;-75
2022/03/21 09:19:29;;;;;;;17.50;14.02;;;11.80;76.70;;;;;;4998679;28;20025;-76
2022/03/21 09:21:55;;;;;;;15.18;12.55;;;11.80;76.10;;;;;;5016272;28;20517;-74
2022/03/21 09:24:21;;;;;;;16.10;13.13;;;11.80;76.30;;;;;;5033855;28;20095;-76
2022/03/21 09:26:47;;;;;;;17.75;13.50;;;11.90;75.80;;;;;;5033703;28;20030;-76
2022/03/21 09:29:12;;;;;;;16.67;13.77;;;11.90;76.10;;;;;;5015893;28;20498;-76
2022/03/21 09:31:41;;;;;;;17.40;13.60;;;12.00;75.80;;;;;;5033180;28;20022;-74
2022/03/21 09:34:12;;;;;;;18.80;13.30;;;12.10;75.60;;;;;;5034398;28;20071;-77
2022/03/21 09:36:38;;;;;;;18.40;12.65;;;12.30;74.90;;;;;;5034705;28;20509;-76
2022/03/21 09:39:05;;;;;;;17.65;13.10;;;12.40;74.70;;;;;;5018469;28;20443;-75
2022/03/21 09:41:32;;;;;;;18.02;12.00;;;12.50;74.60;;;;;;5035646;28;20500;-76
2022/03/21 09:44:03;;;;;;;15.65;13.93;;;12.60;74.50;;;;;;5036782;28;20416;-76
2022/03/21 09:46:30;;;;;;;16.70;14.13;;;12.70;73.80;;;;;;5035836;28;20021;-77
2022/03/21 09:48:57;;;;;;;19.33;12.55;;;12.70;74.20;;;;;;5035546;28;20036;-76
2022/03/21 09:51:24;;;;;;;16.67;12.73;;;13.00;73.20;;;;;;5019011;28;20098;-76
2022/03/21 09:53:50;;;;;;;16.27;14.07;;;13.10;73.20;;;;;;5035417;28;20028;-77
2022/03/21 09:56:16;;;;;;;20.67;13.18;;;13.30;72.90;;;;;;5017734;28;20112;-75
2022/03/21 09:58:43;;;;;;;17.40;13.43;;;13.30;72.90;;;;;;5033663;28;20029;-77
2022/03/21 10:01:11;;;;;;;16.77;13.77;;;13.50;72.40;;;;;;5016463;28;20505;-76
2022/03/21 10:03:38;;;;;;;18.15;13.20;;;13.60;72.00;;;;;;5033757;28;20031;-77
2022/03/21 10:06:27;;;;;;;18.20;13.95;;;13.50;71.80;;;;;;5015610;28;20027;-74
2022/03/21 10:09:14;;;;;;;22.73;12.63;;;13.60;71.90;;;;;;5015669;28;20082;-76
2022/03/21 10:11:48;;;;;;;19.58;13.27;;;13.70;71.40;;;;;;5017135;28;20049;-75
2022/03/21 10:14:36;;;;;;;16.73;13.48;;;13.60;71.90;;;;;;5033113;28;20409;-75
2022/03/21 10:17:09;;;;;;;19.38;13.23;;;13.70;71.70;;;;;;5033400;28;20120;-77
2022/03/21 10:19:48;;;;;;;20.80;14.20;;;13.50;72.60;;;;;;5015491;28;20071;-77
2022/03/21 10:22:16;;;;;;;16.65;14.35;;;13.70;71.60;;;;;;5033625;28;20025;-75
2022/03/21 10:24:46;;;;;;;17.10;13.82;;;13.90;70.70;;;;;;5033828;28;20041;-76
2022/03/21 10:27:27;;;;;;;18.98;14.18;;;14.10;70.10;;;;;;5016408;28;20052;-75
2022/03/21 10:29:59;;;;;;;16.60;12.95;;;14.10;69.70;;;;;;5020803;28;20025;-77
2022/03/21 10:32:35;;;;;;;18.08;13.85;;;14.20;69.80;;;;;;5019840;28;20089;-75
2022/03/21 10:35:06;;;;;;;16.70;14.68;;;14.20;69.10;;;;;;5020346;28;20160;-77
2022/03/21 10:38:04;;;;;;;19.60;14.68;;;14.30;68.80;;;;;;5037479;28;20108;-76
2022/03/21 10:40:41;;;;;;;18.42;14.02;;;14.50;68.00;;;;;;5000073;28;20063;-77
2022/03/21 10:43:11;;;;;;;17.42;14.13;;;14.60;67.80;;;;;;5032663;28;20075;-76
2022/03/21 10:45:42;;;;;;;17.50;14.57;;;15.00;67.00;;;;;;5033250;28;20029;-76
2022/03/21 10:48:11;;;;;;;;;;;15.20;66.10;;;;;;5033301;28;20045;-74
2022/03/21 10:50:42;;;;;;;19.30;15.63;;;15.40;65.20;;;;;;5032087;28;20026;-74
2022/03/21 10:53:07;;;;;;;;;;;15.30;64.70;;;;;;5014731;28;20093;-75
2022/03/21 10:55:33;;;;;;;17.88;15.23;;;15.30;65.30;;;;;;5032036;28;19916;-75
2022/03/21 10:57:59;;;;;;;17.65;14.98;;;15.70;64.20;;;;;;5013948;28;20032;-75
2022/03/21 11:00:29;;;;;;;20.63;16.27;;;15.50;63.80;;;;;;5033411;28;20021;-76
2022/03/21 11:03:17;;;;;;;20.92;16.60;;;15.80;63.50;;;;;;5031796;28;20053;-75
2022/03/21 11:05:47;;;;;;;18.67;15.32;;;15.80;63.00;;;;;;5014709;28;20061;-75
2022/03/21 11:08:15;;;;;;;17.63;15.70;;;15.90;63.00;;;;;;5015453;28;20017;-75
2022/03/21 11:10:41;;;;;;;17.55;15.20;;;15.90;62.40;;;;;;5034384;28;20032;-74
2022/03/21 11:13:09;;;;;;;17.67;13.73;;;15.40;63.40;;;;;;5036759;28;20026;-75
2022/03/21 11:15:37;;;;;;;18.30;14.82;;;15.60;63.70;;;;;;5019960;28;20407;-76
2022/03/21 11:18:04;;;;;;;19.45;14.85;;;16.20;62.20;;;;;;5037661;28;20026;-76
2022/03/21 11:20:30;;;;;;;18.77;15.35;;;16.00;62.00;;;;;;5020531;28;20025;-76
2022/03/21 11:22:57;;;;;;;17.45;14.75;;;15.70;63.10;;;;;;5018931;28;20444;-76
2022/03/21 11:25:31;;;;;;;18.70;14.15;;;15.70;63.60;;;;;;5036717;28;20044;-75
2022/03/21 11:28:21;;;;;;;16.13;14.43;;;15.70;63.20;;;;;;5036905;28;20029;-76
2022/03/21 11:31:15;;;;;;;16.60;14.85;;;16.30;63.30;;;;;;5018979;28;20021;-76
2022/03/21 11:34:01;;;;;;;15.80;13.75;;;16.90;61.80;;;;;;5035317;28;20096;-75
2022/03/21 11:36:29;;;;;;;18.40;13.98;;;17.00;61.50;;;;;;5035400;28;20021;-76
2022/03/21 11:39:00;;;;;;;18.20;15.35;;;16.60;61.00;;;;;;5035066;28;20556;-76
2022/03/21 11:41:28;;;;;;;19.08;13.57;;;16.50;61.40;;;;;;5035322;28;20069;-75
2022/03/21 11:44:06;;;;;;;20.35;14.82;;;16.50;61.70;;;;;;5017296;28;20576;-74
2022/03/21 11:46:36;;;;;;;21.30;13.80;;;16.70;60.70;;;;;;5017257;28;20029;-77
2022/03/21 11:49:27;;;;;;;19.13;15.07;;;16.80;60.40;;;;;;5035457;28;20040;-76
2022/03/21 11:51:57;;;;;;;17.05;15.05;;;16.70;60.70;;;;;;5018242;28;20272;-76
2022/03/21 11:54:26;;;;;;;16.48;14.15;;;16.50;60.70;;;;;;5035519;28;20049;-75
2022/03/21 11:56:55;;;;;;;17.98;13.68;;;16.80;60.70;;;;;;5035744;28;20025;-75
2022/03/21 11:59:33;;;;;;;22.85;15.73;;;16.80;59.70;;;;;;5035131;28;20029;-76
2022/03/21 12:02:19;;;;;;;17.98;14.90;;;16.80;59.60;;;;;;5034970;28;20030;-76
2022/03/21 12:05:11;;;;;;;17.60;14.48;;;16.80;59.80;;;;;;5004506;28;20037;-76
2022/03/21 12:07:38;;;;;;;15.85;13.70;;;16.70;59.70;;;;;;5031566;28;20101;-75
2022/03/21 12:10:04;;;;;;;15.50;13.88;;;16.60;59.90;;;;;;5017122;28;20029;-75
2022/03/21 12:12:38;;;;;;;17.13;14.25;;;16.90;59.90;;;;;;5017352;28;20429;-77
2022/03/21 12:15:14;;;;;;;15.70;13.95;;;17.00;59.50;;;;;;5035157;28;20072;-75
2022/03/21 12:17:47;;;;;;;18.63;13.88;;;17.10;59.30;;;;;;5034813;28;20436;-76
2022/03/21 12:20:15;;;;;;;15.80;13.15;;;17.10;58.90;;;;;;5016881;28;20025;-75
2022/03/21 12:22:47;;;;;;;16.85;13.43;;;17.10;58.80;;;;;;5034380;28;20079;-75
2022/03/21 12:25:21;;;;;;;16.83;14.70;;;16.70;59.10;;;;;;5017329;28;20025;-76
2022/03/21 12:27:58;;;;;;;15.10;12.35;;;16.40;59.30;;;;;;5034634;28;20076;-75
2022/03/21 12:30:27;;;;;;;15.43;12.52;;;16.40;59.50;;;;;;5034352;28;20026;-74
2022/03/21 12:32:58;;;;;;;12.80;10.85;;;16.70;58.90;;;;;;5016442;28;20092;-75
2022/03/21 12:35:39;;;;;;;13.77;12.32;;;17.00;58.20;;;;;;5017307;28;20022;-75
2022/03/21 12:38:32;;;;;;;15.82;13.80;;;17.20;58.00;;;;;;5034643;28;20091;-76
2022/03/21 12:41:00;;;;;;;14.48;11.18;;;16.80;57.60;;;;;;5016397;28;20025;-75
2022/03/21 12:43:32;;;;;;;14.40;12.90;;;16.80;57.30;;;;;;5017147;28;20477;-75
2022/03/21 12:46:06;;;;;;;13.18;11.13;;;16.80;57.70;;;;;;5016796;28;20076;-75
2022/03/21 12:48:38;;;;;;;15.30;11.70;;;17.20;57.70;;;;;;5017475;28;20029;-75
2022/03/21 12:51:05;;;;;;;13.73;10.90;;;17.10;57.50;;;;;;5017716;28;20134;-75
2022/03/21 12:53:37;;;;;;;14.10;11.30;;;17.20;57.20;;;;;;5035685;28;20025;-76
2022/03/21 12:56:05;;;;;;;16.30;11.32;;;17.20;56.90;;;;;;5036387;28;20036;-75
2022/03/21 12:58:31;;;;;;;13.23;9.77;;;17.00;56.80;;;;;;5038031;28;20548;-76